Time;durP1;ratioP1;P1;durP2;ratioP2;P2;SDS_P1;SDS_P2;PMS_P1;PMS_P2;Temp;Humidity;BMP_temperature;BMP_pressure;BME280_temperature;BME280_humidity;BME280_pressure;Samples;Min_cycle;Max_cycle;Signal;HPM_P1;HPM_P2
2022/12/03 00:01:55;;;;;;;57.25;26.95;;;-0.30;85.10;;;;;;5087264;28;20198;-82
2022/12/03 00:04:22;;;;;;;54.13;26.05;;;-0.10;99.90;;;;;;5085570;28;20205;-82
2022/12/03 00:06:49;;;;;;;55.20;28.60;;;-0.30;1.00;;;;;;5084862;28;20281;-82
2022/12/03 00:09:16;;;;;;;58.90;29.10;;;-0.30;1.00;;;;;;5084947;28;20226;-83
2022/12/03 00:11:42;;;;;;;57.30;28.83;;;-0.40;19.00;;;;;;5087641;28;20207;-81
2022/12/03 00:14:09;;;;;;;48.35;25.98;;;-0.30;99.80;;;;;;5098129;28;20269;-81
2022/12/03 00:16:36;;;;;;;51.13;26.63;;;-0.30;3.10;;;;;;5096749;28;20232;-82
2022/12/03 00:19:06;;;;;;;51.72;27.23;;;-0.20;99.90;;;;;;5096988;28;20244;-81
2022/12/03 00:21:33;;;;;;;49.38;26.80;;;-0.60;99.90;;;;;;5096963;28;20217;-81
2022/12/03 00:24:00;;;;;;;55.50;24.85;;;-0.30;1.00;;;;;;5097057;28;20220;-81
2022/12/03 00:26:27;;;;;;;52.40;26.45;;;-0.20;99.90;;;;;;5097037;28;20209;-81
2022/12/03 00:28:54;;;;;;;62.00;24.98;;;-0.50;99.90;;;;;;5094904;28;20202;-81
2022/12/03 00:31:22;;;;;;;44.90;25.08;;;-0.30;99.90;;;;;;5092743;28;20205;-81
2022/12/03 00:33:49;;;;;;;58.90;26.75;;;-0.30;1.00;;;;;;5094221;28;20277;-82
2022/12/03 00:36:18;;;;;;;57.65;25.60;;;-0.40;1.00;;;;;;5094039;28;20257;-81
2022/12/03 00:38:45;;;;;;;44.33;23.63;;;-0.60;99.90;;;;;;5094898;28;20213;-82
2022/12/03 00:41:12;;;;;;;52.00;24.70;;;;;;;;;;5094715;28;20668;-82
2022/12/03 00:43:39;;;;;;;60.47;26.88;;;-0.30;99.90;;;;;;5090308;28;20241;-81
2022/12/03 00:46:06;;;;;;;54.75;27.65;;;0.40;99.90;;;;;;5087889;28;20309;-83
2022/12/03 00:48:33;;;;;;;58.58;26.20;;;-0.10;99.90;;;;;;5093405;28;20202;-81
2022/12/03 00:51:00;;;;;;;57.33;27.08;;;-0.10;99.90;;;;;;5091605;28;20209;-83
2022/12/03 00:53:28;;;;;;;49.55;27.58;;;-0.60;86.50;;;;;;5088769;28;20209;-83
2022/12/03 00:55:55;;;;;;;54.08;26.90;;;-0.20;99.90;;;;;;5085641;28;20724;-82
2022/12/03 00:58:22;;;;;;;57.70;27.42;;;-0.20;43.60;;;;;;5086144;28;20270;-82
2022/12/03 01:00:49;;;;;;;52.92;26.02;;;-0.50;89.40;;;;;;5084369;28;20241;-82
2022/12/03 01:03:15;;;;;;;51.60;25.85;;;-0.30;99.90;;;;;;5082125;28;20233;-82
2022/12/03 01:05:42;;;;;;;51.28;27.45;;;-0.30;1.00;;;;;;5082781;28;20317;-82
2022/12/03 01:08:10;;;;;;;46.72;25.98;;;-0.30;1.00;;;;;;5084897;28;20289;-81
2022/12/03 01:10:38;;;;;;;55.15;27.33;;;-0.30;1.00;;;;;;5084579;28;20209;-82
2022/12/03 01:13:05;;;;;;;53.85;26.60;;;-1.20;66.80;;;;;;5083688;28;20296;-82
2022/12/03 01:15:32;;;;;;;50.72;25.90;;;-0.40;1.00;;;;;;5085357;28;20226;-82
2022/12/03 01:17:59;;;;;;;52.30;27.98;;;-0.30;79.30;;;;;;5085077;28;20261;-81
2022/12/03 01:20:26;;;;;;;57.47;28.13;;;-0.30;1.00;;;;;;5086138;28;20207;-82
2022/12/03 01:22:53;;;;;;;59.35;26.75;;;-0.30;1.00;;;;;;5092758;28;20190;-82
2022/12/03 01:25:20;;;;;;;59.17;29.15;;;-0.70;1.00;;;;;;5094479;28;20293;-83
2022/12/03 01:27:48;;;;;;;50.08;29.27;;;-0.40;1.00;;;;;;5093631;28;20201;-82
2022/12/03 01:30:15;;;;;;;44.90;26.80;;;-0.40;1.00;;;;;;5090909;28;20296;-82
2022/12/03 01:32:41;;;;;;;53.38;27.40;;;-0.30;1.00;;;;;;5089752;28;20679;-83
2022/12/03 01:35:08;;;;;;;49.13;26.80;;;-0.30;1.00;;;;;;5088627;28;20240;-82
2022/12/03 01:37:35;;;;;;;59.47;26.55;;;-0.20;85.00;;;;;;5088764;28;20543;-81
2022/12/03 01:40:02;;;;;;;54.13;27.70;;;-0.40;1.00;;;;;;5095692;28;20255;-82
2022/12/03 01:42:31;;;;;;;53.75;31.48;;;-0.20;55.10;;;;;;5100675;28;20198;-81
2022/12/03 01:45:00;;;;;;;58.55;28.27;;;-0.40;1.00;;;;;;5100593;28;20221;-81
2022/12/03 01:47:30;;;;;;;54.63;27.35;;;-0.30;1.00;;;;;;5097823;28;20218;-81
2022/12/03 01:50:02;;;;;;;57.00;28.35;;;-0.20;1.00;;;;;;5096251;28;20275;-83
2022/12/03 01:52:33;;;;;;;57.10;30.75;;;-0.50;1.00;;;;;;5096206;28;20195;-81
2022/12/03 01:55:02;;;;;;;55.30;28.67;;;-0.40;1.00;;;;;;5095887;28;20312;-82
2022/12/03 01:57:33;;;;;;;56.33;29.50;;;-0.40;1.00;;;;;;5093559;28;20210;-81
2022/12/03 02:00:01;;;;;;;55.45;26.20;;;-0.30;1.00;;;;;;5089147;28;20266;-83
2022/12/03 02:02:30;;;;;;;62.78;28.63;;;-0.20;1.00;;;;;;5089629;28;20237;-82
2022/12/03 02:04:58;;;;;;;52.28;27.67;;;-0.30;1.00;;;;;;5089422;28;20234;-82
2022/12/03 02:07:26;;;;;;;52.97;26.70;;;-0.40;8.50;;;;;;5089269;28;20202;-82
2022/12/03 02:09:56;;;;;;;48.17;27.13;;;-0.20;1.00;;;;;;5088981;28;20225;-82
2022/12/03 02:12:28;;;;;;;56.30;28.38;;;-0.20;9.80;;;;;;5086671;28;20206;-82
2022/12/03 02:14:55;;;;;;;53.97;29.02;;;-0.30;1.00;;;;;;5087244;28;20248;-82
2022/12/03 02:17:23;;;;;;;56.50;30.10;;;-0.20;1.00;;;;;;5087336;28;20289;-83
2022/12/03 02:19:51;;;;;;;52.10;29.25;;;-0.40;1.00;;;;;;5087094;28;20233;-82
2022/12/03 02:22:28;;;;;;;52.10;27.45;;;-0.40;1.00;;;;;;5087202;28;20209;-83
2022/12/03 02:25:06;;;;;;;51.05;26.17;;;-0.50;1.00;;;;;;5086185;28;20293;-82
2022/12/03 02:27:33;;;;;;;51.20;29.05;;;-0.30;1.00;;;;;;5087371;28;20253;-81
2022/12/03 02:30:00;;;;;;;54.47;27.27;;;-0.10;1.00;;;;;;5090548;28;20213;-82
2022/12/03 02:32:27;;;;;;;53.80;28.67;;;-0.40;1.00;;;;;;5088218;28;20273;-82
2022/12/03 02:34:54;;;;;;;56.00;28.80;;;-0.40;1.00;;;;;;5088471;28;20289;-83
2022/12/03 02:37:24;;;;;;;56.47;28.23;;;-0.40;1.00;;;;;;5038671;28;20275;-83
2022/12/03 02:39:54;;;;;;;53.70;28.85;;;-0.70;1.00;;;;;;5087575;28;20206;-83
2022/12/03 02:42:35;;;;;;;61.90;29.90;;;-0.10;1.00;;;;;;5087988;28;20206;-82
2022/12/03 02:45:07;;;;;;;55.08;26.63;;;-0.70;1.00;;;;;;5087366;28;20221;-81
2022/12/03 02:47:35;;;;;;;51.85;25.63;;;-0.40;1.00;;;;;;5086252;28;20194;-81
2022/12/03 02:50:03;;;;;;;48.42;26.15;;;-0.30;1.00;;;;;;5087198;28;20719;-83
2022/12/03 02:52:30;;;;;;;48.50;24.27;;;-0.50;1.00;;;;;;5086741;28;20327;-82
2022/12/03 02:54:57;;;;;;;54.42;25.85;;;-0.50;1.00;;;;;;5086763;28;20261;-82
2022/12/03 02:57:25;;;;;;;52.92;28.83;;;-0.80;12.70;;;;;;5087817;28;20259;-82
2022/12/03 02:59:52;;;;;;;63.42;29.40;;;-0.40;1.00;;;;;;5086666;28;20240;-83
2022/12/03 03:02:20;;;;;;;49.53;26.80;;;-0.40;24.00;;;;;;5094111;28;20219;-82
2022/12/03 03:04:47;;;;;;;63.53;27.60;;;-0.50;1.00;;;;;;5093238;28;20209;-82
2022/12/03 03:07:14;;;;;;;54.50;27.17;;;-0.50;1.00;;;;;;5098338;28;20254;-81
2022/12/03 03:09:42;;;;;;;53.00;27.70;;;-0.50;1.00;;;;;;5099104;28;20205;-81
2022/12/03 03:12:10;;;;;;;48.58;27.95;;;-0.40;14.50;;;;;;5099067;28;20214;-81
2022/12/03 03:14:38;;;;;;;51.40;27.00;;;-0.60;7.40;;;;;;5099355;28;20219;-81
2022/12/03 03:17:05;;;;;;;52.03;27.33;;;-0.30;29.60;;;;;;5098536;28;20185;-82
2022/12/03 03:19:33;;;;;;;51.35;26.40;;;-0.40;18.00;;;;;;5092836;28;20233;-83
2022/12/03 03:22:00;;;;;;;54.78;29.30;;;-0.80;14.20;;;;;;5090372;28;20206;-83
2022/12/03 03:24:27;;;;;;;54.72;27.00;;;-0.60;1.00;;;;;;5088757;28;20269;-82
2022/12/03 03:26:54;;;;;;;55.35;27.50;;;-0.40;1.00;;;;;;5087019;28;20222;-82
2022/12/03 03:29:21;;;;;;;54.00;28.25;;;-0.50;42.00;;;;;;5096945;28;20185;-81
2022/12/03 03:31:49;;;;;;;62.47;26.80;;;-0.20;1.00;;;;;;5096054;28;20229;-81
2022/12/03 03:34:16;;;;;;;53.00;28.00;;;-0.10;1.00;;;;;;5086284;28;20235;-82
2022/12/03 03:36:44;;;;;;;51.05;24.90;;;-0.70;1.00;;;;;;5085871;28;20205;-82
2022/12/03 03:39:12;;;;;;;51.20;26.75;;;-0.50;1.00;;;;;;5086801;28;20238;-82
2022/12/03 03:41:39;;;;;;;52.50;26.65;;;0.00;1.00;;;;;;5086564;28;20297;-82
2022/12/03 03:44:08;;;;;;;59.25;27.83;;;-0.40;1.00;;;;;;5085815;28;20244;-83
2022/12/03 03:46:36;;;;;;;54.10;26.15;;;-0.30;1.00;;;;;;5086018;28;20624;-81
2022/12/03 03:49:05;;;;;;;49.53;24.63;;;-0.30;18.60;;;;;;5087365;28;20291;-81
2022/12/03 03:51:34;;;;;;;48.80;26.27;;;-0.50;1.00;;;;;;5085753;28;20209;-82
2022/12/03 03:54:01;;;;;;;52.80;25.40;;;-0.40;1.00;;;;;;5093601;28;20273;-81
2022/12/03 03:56:28;;;;;;;43.03;23.80;;;-0.50;1.00;;;;;;5088243;28;20229;-81
2022/12/03 03:58:55;;;;;;;47.08;28.55;;;-0.50;1.00;;;;;;5087158;28;20308;-81
2022/12/03 04:01:24;;;;;;;49.28;27.15;;;-0.50;1.00;;;;;;5088060;28;20201;-81
2022/12/03 04:03:52;;;;;;;50.42;25.25;;;-0.40;1.00;;;;;;5086975;28;20276;-81
2022/12/03 04:06:20;;;;;;;55.28;28.73;;;-0.40;1.00;;;;;;5086553;28;20256;-82
2022/12/03 04:08:47;;;;;;;49.35;26.50;;;-0.50;1.00;;;;;;5086728;28;20266;-82
2022/12/03 04:13:58;;;;;;;47.05;26.52;;;-0.30;21.80;;;;;;5086123;28;20224;-81
2022/12/03 04:16:25;;;;;;;44.80;26.02;;;-0.40;1.00;;;;;;5097492;28;20237;-81
2022/12/03 04:18:52;;;;;;;57.00;28.83;;;-0.20;1.00;;;;;;5097180;28;20221;-81
2022/12/03 04:24:09;;;;;;;57.78;27.05;;;-0.70;1.00;;;;;;5095383;28;20197;-81
2022/12/03 04:29:21;;;;;;;57.63;26.38;;;-0.50;1.00;;;;;;5098695;28;20200;-81
2022/12/03 04:37:18;;;;;;;52.25;25.48;;;-0.40;1.00;;;;;;5097987;28;20165;-81
2022/12/03 04:39:45;;;;;;;46.38;26.00;;;-0.40;1.00;;;;;;5097883;28;20288;-81
2022/12/03 04:42:12;;;;;;;50.55;26.98;;;-0.60;38.80;;;;;;5097900;28;20244;-81
2022/12/03 04:44:39;;;;;;;48.13;25.55;;;-0.20;88.80;;;;;;5098447;28;20217;-81
2022/12/03 04:47:09;;;;;;;53.60;26.35;;;-0.50;1.00;;;;;;5098072;28;20187;-81
2022/12/03 04:49:38;;;;;;;50.85;28.05;;;-0.30;99.90;;;;;;5098296;28;20175;-82
2022/12/03 04:52:05;;;;;;;52.13;26.83;;;-0.60;1.00;;;;;;5096089;28;20182;-83
2022/12/03 04:54:34;;;;;;;54.40;26.30;;;-0.60;99.90;;;;;;5097294;28;20220;-81
2022/12/03 04:57:01;;;;;;;44.88;26.45;;;-0.60;19.60;;;;;;5097756;28;20261;-82
2022/12/03 04:59:27;;;;;;;57.22;27.13;;;-0.60;1.00;;;;;;5094263;28;20229;-82
2022/12/03 05:01:54;;;;;;;51.63;26.30;;;-0.50;99.90;;;;;;5089512;28;20202;-82
2022/12/03 05:04:21;;;;;;;48.05;26.60;;;-0.80;99.90;;;;;;5094160;28;20210;-81
2022/12/03 05:06:48;;;;;;;55.60;30.92;;;-0.50;62.60;;;;;;5094663;28;20517;-82
2022/12/03 05:09:15;;;;;;;56.92;29.02;;;-0.50;99.90;;;;;;5099287;28;20202;-81
2022/12/03 05:11:44;;;;;;;55.15;25.85;;;-0.60;99.90;;;;;;5100690;28;20213;-82
2022/12/03 05:14:11;;;;;;;56.15;27.48;;;-0.40;99.90;;;;;;5095565;28;20272;-82
2022/12/03 05:16:38;;;;;;;57.58;28.80;;;-0.60;99.90;;;;;;5094698;28;20230;-82
2022/12/03 05:19:07;;;;;;;58.50;31.25;;;-0.40;99.90;;;;;;5093612;28;20509;-82
2022/12/03 05:21:33;;;;;;;61.22;28.52;;;;;;;;;;5094633;28;20205;-81
2022/12/03 05:24:00;;;;;;;51.08;24.98;;;-0.50;99.90;;;;;;5093773;28;20264;-82
2022/12/03 05:26:27;;;;;;;52.72;28.60;;;-0.40;99.90;;;;;;5093005;28;20230;-82
2022/12/03 05:28:55;;;;;;;49.55;27.98;;;-0.40;99.90;;;;;;5092992;28;20268;-81
2022/12/03 05:31:22;;;;;;;51.00;26.60;;;-0.50;99.90;;;;;;5091700;28;20202;-82
2022/12/03 05:33:49;;;;;;;51.00;27.88;;;-0.20;99.90;;;;;;5092113;28;20267;-82
2022/12/03 05:36:16;;;;;;;52.95;28.13;;;-0.70;99.90;;;;;;5092328;28;20248;-82
2022/12/03 05:38:43;;;;;;;50.78;25.30;;;-0.60;99.90;;;;;;5091858;28;20208;-82
2022/12/03 05:43:50;;;;;;;54.83;27.88;;;-0.60;99.90;;;;;;5088207;28;20198;-82
2022/12/03 05:46:18;;;;;;;56.53;29.25;;;-0.60;99.90;;;;;;5088490;28;20279;-83
2022/12/03 05:48:45;;;;;;;53.83;26.75;;;-0.70;1.00;;;;;;5087834;28;20267;-83
2022/12/03 05:51:12;;;;;;;54.28;28.30;;;-0.70;99.90;;;;;;5088249;28;20688;-82
2022/12/03 05:53:39;;;;;;;47.45;27.90;;;-0.60;1.00;;;;;;5095209;28;20204;-81
2022/12/03 05:56:06;;;;;;;65.40;33.50;;;-0.60;1.00;;;;;;5096070;28;20431;-81
2022/12/03 05:58:33;;;;;;;63.17;29.40;;;-0.70;1.00;;;;;;5097372;28;20243;-80
2022/12/03 06:01:00;;;;;;;54.08;29.20;;;-0.50;1.00;;;;;;5090194;28;20225;-81
2022/12/03 06:03:28;;;;;;;54.63;28.63;;;-0.70;1.00;;;;;;5089100;28;20206;-83
2022/12/03 06:05:55;;;;;;;60.55;29.98;;;-0.80;1.00;;;;;;5088714;28;20239;-82
2022/12/03 06:08:22;;;;;;;56.50;29.17;;;;;;;;;;5088226;28;20296;-82
2022/12/03 06:10:49;;;;;;;59.75;32.50;;;-0.70;1.00;;;;;;5090885;28;20285;-81
2022/12/03 06:13:16;;;;;;;57.50;30.25;;;-1.10;7.50;;;;;;5093964;28;20304;-82
2022/12/03 06:15:43;;;;;;;54.17;27.80;;;-0.50;70.20;;;;;;5088744;28;20229;-82
2022/12/03 06:18:09;;;;;;;55.08;27.20;;;-0.90;89.00;;;;;;5095790;28;20274;-82
2022/12/03 06:20:38;;;;;;;54.92;27.45;;;-0.80;1.00;;;;;;5097297;28;20224;-80
2022/12/03 06:23:05;;;;;;;63.80;28.63;;;-0.80;4.90;;;;;;5093418;28;20269;-81
2022/12/03 06:25:31;;;;;;;61.92;26.40;;;-1.40;99.90;;;;;;5086862;28;20261;-82
2022/12/03 06:27:58;;;;;;;51.15;26.60;;;-0.60;99.90;;;;;;5086524;28;20289;-82
2022/12/03 06:30:25;;;;;;;54.90;28.60;;;-1.00;99.90;;;;;;5086614;28;20598;-82
2022/12/03 06:32:52;;;;;;;55.42;27.63;;;-1.00;99.90;;;;;;5087577;28;20217;-82
2022/12/03 06:35:19;;;;;;;64.65;31.42;;;-0.80;67.30;;;;;;5096898;28;20206;-81
2022/12/03 06:37:47;;;;;;;52.85;27.90;;;-0.90;45.70;;;;;;5100129;28;20225;-81
2022/12/03 06:40:15;;;;;;;57.03;29.40;;;-1.10;87.70;;;;;;5100023;28;20229;-82
2022/12/03 06:42:42;;;;;;;67.60;32.58;;;-0.90;72.80;;;;;;5099961;28;20208;-83
2022/12/03 06:45:09;;;;;;;60.33;29.75;;;-1.20;99.90;;;;;;5096309;28;20226;-82
2022/12/03 06:47:36;;;;;;;57.55;30.75;;;-0.90;99.90;;;;;;5093650;28;20240;-82
2022/12/03 06:50:04;;;;;;;57.88;29.17;;;-1.10;99.90;;;;;;5093971;28;20186;-82
2022/12/03 06:52:31;;;;;;;65.90;31.02;;;-1.20;99.90;;;;;;5094870;28;20229;-82
2022/12/03 06:54:59;;;;;;;66.93;30.40;;;-1.10;99.90;;;;;;5091121;28;20225;-82
2022/12/03 06:57:28;;;;;;;69.93;29.35;;;-0.70;99.90;;;;;;5087197;28;20205;-82
2022/12/03 06:59:55;;;;;;;58.88;29.33;;;-0.90;99.90;;;;;;5086822;28;20222;-82
2022/12/03 07:02:22;;;;;;;64.03;31.65;;;-0.90;99.90;;;;;;5086577;28;20209;-82
2022/12/03 07:04:49;;;;;;;56.38;30.40;;;-1.00;99.90;;;;;;5085494;28;20667;-82
2022/12/03 07:11:29;;;;;;;53.80;26.55;;;;;;;;;;4995680;28;20796;-83
2022/12/03 07:23:33;;;;;;;54.33;29.33;;;;;;;;;;5107357;28;20191;-84
2022/12/03 07:26:21;;;;;;;78.15;31.25;;;;;;;;;;5111780;28;20224;-80
2022/12/03 07:29:54;;;;;;;;;;;;;;;;;;;;;
2022/12/03 07:32:44;;;;;;;;;;;;;;;;;;;;;
2022/12/03 07:45:02;;;;;;;77.15;37.60;;;-0.90;99.90;;;;;;5030053;28;20528;-85
2022/12/03 07:47:37;;;;;;;64.43;32.88;;;;;;;;;;5000307;28;20226;-84
2022/12/03 07:50:16;;;;;;;61.83;32.45;;;;;;;;;;5039533;28;20194;-82
2022/12/03 07:55:49;;;;;;;69.60;31.83;;;;;;;;;;5099685;28;20199;-84
2022/12/03 07:58:26;;;;;;;64.53;30.42;;;;;;;;;;5098396;28;20212;-83
2022/12/03 08:08:18;;;;;;;;;;;;;;;;;;;;;
2022/12/03 08:14:28;;;;;;;65.70;29.90;;;;;;;;;;4967248;28;20203;-84
2022/12/03 08:17:55;;;;;;;64.38;29.95;;;-1.00;99.90;;;;;;5097236;28;20644;-84
2022/12/03 08:20:47;;;;;;;63.53;30.98;;;-0.90;99.90;;;;;;5018455;28;20236;-83
2022/12/03 08:26:33;;;;;;;65.07;30.05;;;-1.00;99.90;;;;;;5086878;28;20257;-84
2022/12/03 08:29:16;;;;;;;69.05;32.67;;;-0.90;99.90;;;;;;5103317;28;20196;-81
2022/12/03 08:32:00;;;;;;;71.47;31.63;;;;;;;;;;5103949;28;20220;-83
2022/12/03 08:34:48;;;;;;;;;;;;;;;;;;;;;
2022/12/03 08:37:36;;;;;;;60.80;28.25;;;-0.90;99.90;;;;;;5109280;28;20223;-82
2022/12/03 08:40:29;;;;;;;71.93;31.27;;;-0.90;99.90;;;;;;5112576;28;20663;-83
2022/12/03 08:43:28;;;;;;;58.92;30.08;;;-0.90;99.90;;;;;;5112484;28;20221;-82
2022/12/03 08:46:37;;;;;;;67.10;29.90;;;-0.90;99.90;;;;;;5109717;28;20228;-83
2022/12/03 08:49:13;;;;;;;66.07;29.83;;;;;;;;;;5108717;28;20205;-81
2022/12/03 08:55:00;;;;;;;71.78;33.38;;;;;;;;;;5052990;28;20193;-82
2022/12/03 09:48:50;;;;;;;67.68;29.40;;;-0.70;99.90;;;;;;4830070;29;20253;-83
2022/12/03 09:58:54;;;;;;;70.78;31.27;;;-0.60;99.90;;;;;;4955102;28;20213;-82
2022/12/03 10:08:23;;;;;;;79.35;31.23;;;-0.60;99.90;;;;;;4884093;29;20297;-83
2022/12/03 10:11:46;;;;;;;;;;;;;;;;;;;;;
2022/12/03 10:21:32;;;;;;;;;;;;;;;;;;;;;
2022/12/03 12:02:35;;;;;;;56.03;26.65;;;-0.10;34.80;;;;;;5111424;22;20254;-82
2022/12/03 12:05:19;;;;;;;55.58;26.83;;;-0.40;67.70;;;;;;5132670;28;20269;-83
2022/12/03 12:07:46;;;;;;;56.60;26.60;;;-0.30;86.10;;;;;;5128189;28;20195;-84
2022/12/03 12:10:16;;;;;;;72.60;30.10;;;-1.10;99.90;;;;;;5129705;28;20242;-84
2022/12/03 12:12:44;;;;;;;64.32;31.08;;;0.00;93.30;;;;;;5107393;28;20308;-84
2022/12/03 12:15:35;;;;;;;56.80;30.10;;;-0.60;68.30;;;;;;5111515;28;20276;-83
2022/12/03 12:18:39;;;;;;;57.70;26.65;;;0.00;99.90;;;;;;5112962;28;20221;-84
2022/12/03 12:21:42;;;;;;;63.00;29.15;;;-0.10;59.80;;;;;;5111265;28;20315;-84
2022/12/03 12:24:34;;;;;;;57.63;28.58;;;0.30;99.90;;;;;;5115416;28;20216;-85
2022/12/03 12:27:05;;;;;;;61.10;27.30;;;-0.30;97.50;;;;;;5115220;28;20190;-84
2022/12/03 12:29:32;;;;;;;61.55;28.45;;;-0.10;99.90;;;;;;5116687;28;20234;-82
2022/12/03 12:32:12;;;;;;;61.10;27.38;;;-0.20;1.00;;;;;;5113555;28;20228;-84
2022/12/03 12:34:40;;;;;;;60.80;27.17;;;-0.40;99.90;;;;;;5106378;28;20304;-85
2022/12/03 12:37:13;;;;;;;56.33;26.33;;;0.10;99.90;;;;;;5110077;28;20190;-84
2022/12/03 12:39:40;;;;;;;60.75;26.65;;;-0.40;99.90;;;;;;5117190;28;20224;-83
2022/12/03 12:42:29;;;;;;;53.03;26.55;;;-0.20;57.00;;;;;;5117223;28;20240;-83
2022/12/03 12:45:00;;;;;;;65.00;29.88;;;0.20;99.90;;;;;;5110826;28;20303;-84
2022/12/03 12:47:29;;;;;;;67.53;29.77;;;0.00;99.90;;;;;;5114227;28;20202;-82
2022/12/03 12:49:57;;;;;;;56.72;29.50;;;0.30;96.40;;;;;;5106776;28;20201;-82
2022/12/03 12:52:28;;;;;;;61.83;28.63;;;0.00;99.90;;;;;;5103798;28;20297;-81
2022/12/03 12:54:55;;;;;;;68.05;28.67;;;-0.40;99.90;;;;;;5102588;28;20212;-81
2022/12/03 12:57:23;;;;;;;63.10;28.75;;;0.00;99.90;;;;;;5103719;28;20209;-82
2022/12/03 12:59:51;;;;;;;64.65;27.60;;;-0.50;99.90;;;;;;5103746;28;20236;-82
2022/12/03 13:02:39;;;;;;;70.28;28.08;;;-0.40;99.90;;;;;;5102766;28;20248;-81
2022/12/03 13:05:10;;;;;;;62.22;30.73;;;-0.20;99.90;;;;;;5102809;28;20689;-83
2022/12/03 13:07:39;;;;;;;63.20;29.75;;;-0.60;99.90;;;;;;5110362;28;20213;-81
2022/12/03 13:10:32;;;;;;;55.38;27.40;;;-0.30;99.90;;;;;;5103801;28;20214;-82
2022/12/03 13:13:07;;;;;;;58.03;26.70;;;-0.40;99.90;;;;;;5103297;28;20230;-83
2022/12/03 13:15:42;;;;;;;66.47;27.20;;;-0.20;99.90;;;;;;5103829;28;20276;-82
2022/12/03 13:18:23;;;;;;;59.80;27.00;;;-0.10;99.90;;;;;;5101377;28;20225;-83
2022/12/03 13:20:51;;;;;;;67.57;28.40;;;-0.50;99.90;;;;;;5109330;28;20427;-82
2022/12/03 13:23:28;;;;;;;60.08;25.45;;;-0.20;99.90;;;;;;5109570;28;20210;-82
2022/12/03 13:25:56;;;;;;;72.15;27.23;;;-0.20;99.90;;;;;;5108908;28;20189;-83
2022/12/03 13:28:24;;;;;;;63.08;27.52;;;-0.10;99.90;;;;;;5106580;28;20206;-81
2022/12/03 13:30:51;;;;;;;72.25;33.72;;;-0.10;99.90;;;;;;5107144;28;20229;-83
2022/12/03 13:33:25;;;;;;;59.20;26.65;;;-0.10;99.90;;;;;;5107238;28;20235;-82
2022/12/03 13:35:54;;;;;;;62.30;26.45;;;0.00;99.90;;;;;;5107145;28;20269;-83
2022/12/03 13:38:23;;;;;;;61.53;29.75;;;-0.40;99.90;;;;;;5108430;28;20205;-81
2022/12/03 13:40:59;;;;;;;53.35;26.48;;;-0.30;99.90;;;;;;5107112;28;20258;-81
2022/12/03 13:43:31;;;;;;;67.63;29.02;;;0.00;99.90;;;;;;5108820;28;20273;-83
2022/12/03 13:46:00;;;;;;;63.38;27.48;;;-0.20;99.90;;;;;;5107208;28;20268;-81
2022/12/03 13:48:30;;;;;;;67.22;28.15;;;-0.10;99.90;;;;;;5107294;28;20202;-82
2022/12/03 13:51:00;;;;;;;54.92;26.58;;;-0.10;99.90;;;;;;5107942;28;20225;-81
2022/12/03 13:53:33;;;;;;;66.45;28.55;;;-0.50;99.90;;;;;;5108255;28;20209;-82
2022/12/03 13:56:14;;;;;;;58.60;27.02;;;-0.30;99.90;;;;;;5110327;28;20193;-82
2022/12/03 13:58:41;;;;;;;54.25;26.40;;;-0.40;99.90;;;;;;5117112;28;20277;-82
2022/12/03 14:01:08;;;;;;;52.15;28.17;;;-0.50;99.90;;;;;;5116264;28;20286;-81
2022/12/03 14:03:35;;;;;;;55.40;29.00;;;-0.20;99.90;;;;;;5111662;28;20205;-83
2022/12/03 14:06:02;;;;;;;62.50;27.13;;;-0.30;99.90;;;;;;5115027;28;20213;-82
2022/12/03 14:08:30;;;;;;;66.35;28.13;;;-0.40;99.90;;;;;;5115344;28;20219;-82
2022/12/03 14:10:59;;;;;;;59.60;27.15;;;-0.40;99.90;;;;;;5113845;28;20233;-80
2022/12/03 14:13:26;;;;;;;68.32;29.92;;;-0.20;99.90;;;;;;5108112;28;20259;-82
2022/12/03 14:15:53;;;;;;;69.57;31.85;;;0.10;99.90;;;;;;5107916;28;20229;-81
2022/12/03 14:18:19;;;;;;;59.83;25.80;;;-0.20;99.90;;;;;;5108145;28;20230;-81
2022/12/03 14:20:47;;;;;;;59.05;27.05;;;-0.10;99.90;;;;;;5108399;28;20240;-81
2022/12/03 14:23:14;;;;;;;59.97;27.83;;;-0.40;99.90;;;;;;5109503;28;20709;-82
2022/12/03 14:25:43;;;;;;;60.83;28.85;;;0.10;99.90;;;;;;5108212;28;20205;-82
2022/12/03 14:28:10;;;;;;;51.55;26.77;;;;;;;;;;5107479;28;20205;-81
2022/12/03 14:30:37;;;;;;;54.30;25.02;;;-0.10;99.90;;;;;;5109704;28;20208;-82
2022/12/03 14:33:10;;;;;;;52.60;27.08;;;-0.30;99.90;;;;;;5108109;28;20231;-82
2022/12/03 14:35:37;;;;;;;65.68;28.10;;;-0.30;99.90;;;;;;5107073;28;20701;-82
2022/12/03 14:38:11;;;;;;;54.95;25.05;;;-0.20;99.90;;;;;;5108405;28;20273;-82
2022/12/03 14:40:38;;;;;;;61.00;26.92;;;-0.10;99.90;;;;;;5108122;28;20207;-81
2022/12/03 14:43:07;;;;;;;65.65;24.98;;;-0.30;99.90;;;;;;5107300;28;20263;-82
2022/12/03 14:45:34;;;;;;;69.22;31.58;;;0.00;99.90;;;;;;5106846;28;20539;-81
2022/12/03 14:48:03;;;;;;;51.70;26.52;;;-0.50;99.90;;;;;;5107412;28;20265;-82
2022/12/03 14:50:32;;;;;;;59.90;29.17;;;-0.30;99.90;;;;;;5105186;28;20331;-80
2022/12/03 14:52:58;;;;;;;68.85;29.20;;;0.10;99.90;;;;;;5106294;28;20432;-82
2022/12/03 14:55:25;;;;;;;59.08;28.58;;;-0.30;99.90;;;;;;5109407;28;20277;-83
2022/12/03 14:57:53;;;;;;;56.50;26.85;;;-0.20;99.90;;;;;;5110799;28;20198;-81
2022/12/03 15:00:22;;;;;;;63.75;28.42;;;-0.40;99.90;;;;;;5109580;28;20269;-80
2022/12/03 15:02:49;;;;;;;57.85;25.95;;;0.10;99.90;;;;;;5106841;28;20263;-82
2022/12/03 15:05:16;;;;;;;54.70;25.30;;;0.00;99.90;;;;;;5105835;28;20327;-82
2022/12/03 15:07:43;;;;;;;58.45;26.45;;;-0.30;99.90;;;;;;5105076;28;20280;-81
2022/12/03 15:10:10;;;;;;;64.68;29.80;;;0.00;99.90;;;;;;5107916;28;20221;-81
2022/12/03 15:12:37;;;;;;;61.53;25.65;;;-0.30;99.90;;;;;;5113673;28;20280;-81
2022/12/03 15:15:05;;;;;;;56.35;25.55;;;-0.30;99.90;;;;;;5111940;28;20221;-81
2022/12/03 15:17:46;;;;;;;58.65;26.00;;;-0.40;99.90;;;;;;5110960;28;20201;-82
2022/12/03 15:20:13;;;;;;;56.42;24.95;;;-0.70;99.90;;;;;;5110901;28;20236;-81
2022/12/03 15:22:40;;;;;;;52.28;25.60;;;0.20;99.90;;;;;;5106439;28;20221;-83
2022/12/03 15:25:09;;;;;;;53.05;26.98;;;-0.40;99.90;;;;;;5105739;28;20206;-81
2022/12/03 15:27:37;;;;;;;61.80;29.60;;;-0.50;99.90;;;;;;5104714;28;20291;-82
2022/12/03 15:30:05;;;;;;;60.63;26.00;;;-0.10;99.90;;;;;;5104413;28;20197;-82
2022/12/03 15:32:34;;;;;;;61.85;26.60;;;-0.10;99.90;;;;;;5102104;28;20301;-82
2022/12/03 15:35:01;;;;;;;62.55;26.92;;;0.00;99.90;;;;;;5103547;28;20202;-83
2022/12/03 15:37:31;;;;;;;63.38;28.10;;;0.10;99.90;;;;;;5103440;28;20210;-83
2022/12/03 15:39:58;;;;;;;63.60;28.20;;;-0.50;99.90;;;;;;5104354;28;20239;-81
2022/12/03 15:42:28;;;;;;;70.95;27.73;;;-0.10;99.90;;;;;;5107413;28;20224;-83
2022/12/03 15:44:55;;;;;;;57.50;26.77;;;-0.60;99.90;;;;;;5108344;28;20198;-82
2022/12/03 15:47:23;;;;;;;63.10;28.90;;;0.10;99.90;;;;;;5107901;28;20211;-81
2022/12/03 15:49:52;;;;;;;57.40;29.70;;;-0.20;99.90;;;;;;5107702;28;20213;-82
2022/12/03 15:52:19;;;;;;;65.90;27.15;;;0.00;99.90;;;;;;5107337;28;20221;-82
2022/12/03 15:54:49;;;;;;;56.85;28.10;;;0.00;99.90;;;;;;5111850;28;20230;-83
2022/12/03 15:57:18;;;;;;;71.75;27.17;;;-0.20;99.90;;;;;;5114775;28;20201;-82
2022/12/03 15:59:45;;;;;;;63.55;30.83;;;-0.40;99.90;;;;;;5113438;28;20196;-81
2022/12/03 16:02:13;;;;;;;62.28;27.80;;;;;;;;;;5108881;28;20233;-81
2022/12/03 16:04:40;;;;;;;65.50;30.75;;;-0.50;99.90;;;;;;5106285;28;20656;-82
2022/12/03 16:07:10;;;;;;;66.40;29.25;;;0.10;99.90;;;;;;5108118;28;20213;-83
2022/12/03 16:09:37;;;;;;;71.78;26.60;;;0.00;99.90;;;;;;5104895;28;20264;-82
2022/12/03 16:12:20;;;;;;;56.53;25.67;;;;;;;;;;5125878;22;20236;-82
2022/12/03 16:17:58;;;;;;;55.47;28.48;;;;;;;;;;5123093;28;20271;-82
2022/12/03 16:20:28;;;;;;;69.18;27.42;;;;;;;;;;5121225;28;20214;-81
2022/12/03 16:23:11;;;;;;;58.08;28.33;;;;;;;;;;5105206;28;20224;-82
2022/12/03 16:25:41;;;;;;;67.88;29.08;;;;;;;;;;5104970;28;20233;-82
2022/12/03 16:28:27;;;;;;;64.43;27.83;;;-0.10;99.90;;;;;;5104712;28;20240;-82
2022/12/03 16:30:58;;;;;;;53.33;24.25;;;;;;;;;;5102224;28;20225;-82
2022/12/03 16:33:27;;;;;;;56.30;28.75;;;;;;;;;;5105937;28;20220;-82
2022/12/03 16:41:55;;;;;;;55.00;30.25;;;;;;;;;;5101225;28;20247;-81
2022/12/03 16:47:38;;;;;;;61.88;29.08;;;-0.10;99.90;;;;;;5099354;28;20239;-82
2022/12/03 16:50:38;;;;;;;;;;;;;;;;;;;;;
2022/12/03 16:53:24;;;;;;;62.50;26.13;;;;;;;;;;5102302;28;20211;-81
2022/12/03 16:59:44;;;;;;;61.08;27.88;;;;;;;;;;5105593;28;20208;-82
2022/12/03 17:02:32;;;;;;;63.83;26.83;;;;;;;;;;5111592;28;20294;-81
2022/12/03 17:10:42;;;;;;;56.85;29.27;;;;;;;;;;5082379;28;20751;-82
2022/12/03 17:13:12;;;;;;;52.35;28.45;;;;;;;;;;5104921;28;20585;-83
2022/12/03 17:16:00;;;;;;;55.63;24.73;;;;;;;;;;5105478;28;20252;-82
2022/12/03 17:18:37;;;;;;;57.33;27.92;;;;;;;;;;5104831;28;20250;-82
2022/12/03 17:21:28;;;;;;;63.97;29.30;;;;;;;;;;5105369;28;20270;-83
2022/12/03 17:23:58;;;;;;;58.78;27.15;;;;;;;;;;5106097;28;20232;-81